createdAt,value
2024-02-23T00:01:49.038Z,5.22
2024-02-23T00:04:16.602Z,5.17
2024-02-23T00:06:44.156Z,5.20
2024-02-23T00:09:11.715Z,5.19
2024-02-23T00:11:45.897Z,5.16
2024-02-23T00:14:14.420Z,5.12
2024-02-23T00:16:42.124Z,5.13
2024-02-23T00:19:10.943Z,5.07
2024-02-23T00:21:39.748Z,5.03
2024-02-23T00:24:07.742Z,4.99
2024-02-23T00:26:35.373Z,4.98
2024-02-23T00:29:03.997Z,4.97
2024-02-23T00:31:31.602Z,4.96
2024-02-23T00:33:59.351Z,4.94
2024-02-23T00:36:27.009Z,4.91
2024-02-23T00:38:54.538Z,4.88
2024-02-23T00:41:22.064Z,4.87
2024-02-23T00:43:49.626Z,4.84
2024-02-23T00:46:17.603Z,4.82
2024-02-23T00:48:45.352Z,4.80
2024-02-23T00:51:12.861Z,4.79
2024-02-23T00:53:40.396Z,4.79
2024-02-23T00:56:08.146Z,4.78
2024-02-23T00:58:35.647Z,4.76
2024-02-23T01:01:03.537Z,4.73
2024-02-23T01:03:31.075Z,4.72
2024-02-23T01:05:58.714Z,4.72
2024-02-23T01:08:26.319Z,4.70
2024-02-23T01:10:53.820Z,4.69
2024-02-23T01:13:21.413Z,4.66
2024-02-23T01:15:48.959Z,4.65
2024-02-23T01:18:16.650Z,4.62
2024-02-23T01:20:44.412Z,4.63
2024-02-23T01:23:12.028Z,4.63
2024-02-23T01:25:40.419Z,4.61
2024-02-23T01:28:07.893Z,4.63
2024-02-23T01:30:35.414Z,4.60
2024-02-23T01:33:04.099Z,4.59
2024-02-23T01:35:32.197Z,4.57
2024-02-23T01:38:00.007Z,4.56
2024-02-23T01:40:27.654Z,4.54
2024-02-23T01:43:07.672Z,4.56
2024-02-23T01:45:35.159Z,4.57
2024-02-23T01:48:02.881Z,4.56
2024-02-23T01:50:30.689Z,4.54
2024-02-23T01:53:00.353Z,4.54
2024-02-23T01:55:27.845Z,4.56
2024-02-23T01:57:55.345Z,4.55
2024-02-23T02:00:22.830Z,4.54
2024-02-23T02:02:53.093Z,4.53
2024-02-23T02:05:20.664Z,4.52
2024-02-23T02:07:49.151Z,4.51
2024-02-23T02:10:16.651Z,4.50
2024-02-23T02:12:44.277Z,4.45
2024-02-23T02:15:11.757Z,4.45
2024-02-23T02:17:39.325Z,4.47
2024-02-23T02:20:08.116Z,4.46
2024-02-23T02:22:35.752Z,4.43
2024-02-23T02:25:03.488Z,4.42
2024-02-23T02:27:31.021Z,4.43
2024-02-23T02:29:59.040Z,4.43
2024-02-23T02:32:26.630Z,4.42
2024-02-23T02:34:54.395Z,4.41
2024-02-23T02:37:22.003Z,4.40
2024-02-23T02:39:49.489Z,4.40
2024-02-23T02:42:17.669Z,4.40
2024-02-23T02:44:45.164Z,4.39
2024-02-23T02:47:12.791Z,4.38
2024-02-23T02:49:41.197Z,4.37
2024-02-23T02:52:09.841Z,4.34
2024-02-23T02:54:37.293Z,4.33
2024-02-23T02:57:04.848Z,4.32
2024-02-23T02:59:36.794Z,4.32
2024-02-23T03:02:04.682Z,4.32
2024-02-23T03:04:32.312Z,4.31
2024-02-23T03:06:59.799Z,4.33
2024-02-23T03:09:27.376Z,4.30
2024-02-23T03:11:54.866Z,4.33
2024-02-23T03:14:23.249Z,4.34
2024-02-23T03:16:50.889Z,4.35
2024-02-23T03:19:21.284Z,4.34
2024-02-23T03:21:48.920Z,4.31
2024-02-23T03:24:16.433Z,4.29
2024-02-23T03:26:44.074Z,4.31
2024-02-23T03:29:12.098Z,4.30
2024-02-23T03:31:39.715Z,4.33
2024-02-23T03:34:07.204Z,4.33
2024-02-23T03:36:35.854Z,4.35
2024-02-23T03:39:03.351Z,4.36
2024-02-23T03:41:30.900Z,4.35
2024-02-23T03:43:58.615Z,4.36
2024-02-23T03:46:26.226Z,4.36
2024-02-23T03:48:54.068Z,4.38
2024-02-23T03:51:21.611Z,4.39
2024-02-23T03:53:49.106Z,4.42
2024-02-23T03:56:17.349Z,4.40
2024-02-23T03:58:44.836Z,4.38
2024-02-23T04:01:12.413Z,4.39
2024-02-23T04:03:39.941Z,4.39
2024-02-23T04:06:08.798Z,4.40
2024-02-23T04:08:36.856Z,4.42
2024-02-23T04:11:04.681Z,4.44
2024-02-23T04:13:32.285Z,4.40
2024-02-23T04:16:02.349Z,4.44
2024-02-23T04:18:29.999Z,4.45
2024-02-23T04:20:57.448Z,4.45
2024-02-23T04:23:25.126Z,4.46
2024-02-23T04:25:52.721Z,4.47
2024-02-23T04:28:20.208Z,4.47
2024-02-23T04:30:47.765Z,4.48
2024-02-23T04:33:15.302Z,4.49
2024-02-23T04:35:42.942Z,4.48
2024-02-23T04:38:10.505Z,4.47
2024-02-23T04:40:38.144Z,4.49
2024-02-23T04:43:05.725Z,4.51
2024-02-23T04:45:33.334Z,4.51
2024-02-23T04:48:00.875Z,4.51
2024-02-23T04:50:28.469Z,4.49
2024-02-23T04:52:56.057Z,4.51
2024-02-23T04:55:23.552Z,4.51
2024-02-23T04:57:51.343Z,4.51
2024-02-23T05:00:19.017Z,4.46
2024-02-23T05:02:47.723Z,4.47
2024-02-23T05:05:15.304Z,4.47
2024-02-23T05:07:42.954Z,4.46
2024-02-23T05:10:11.353Z,4.47
2024-02-23T05:12:38.860Z,4.48
2024-02-23T05:15:06.828Z,4.49
2024-02-23T05:17:34.388Z,4.49
2024-02-23T05:20:02.201Z,4.50
2024-02-23T05:22:29.770Z,4.49
2024-02-23T05:24:57.349Z,4.49
2024-02-23T05:27:24.837Z,4.49
2024-02-23T05:29:52.323Z,4.49
2024-02-23T05:32:20.466Z,4.49
2024-02-23T05:34:47.994Z,4.51
2024-02-23T05:37:15.522Z,4.53
2024-02-23T05:39:44.815Z,4.53
2024-02-23T05:42:14.415Z,4.53
2024-02-23T05:44:44.870Z,4.55
2024-02-23T05:47:12.409Z,4.54
2024-02-23T05:49:39.962Z,4.55
2024-02-23T05:52:07.962Z,4.56
2024-02-23T05:54:35.510Z,4.57
2024-02-23T05:57:04.281Z,4.58
2024-02-23T05:59:31.982Z,4.60
2024-02-23T06:01:59.619Z,4.64
2024-02-23T06:04:28.346Z,4.64
2024-02-23T06:06:56.087Z,4.68
2024-02-23T06:09:23.764Z,4.68
2024-02-23T06:11:51.417Z,4.70
2024-02-23T06:14:19.175Z,4.68
2024-02-23T06:16:46.777Z,4.70
2024-02-23T06:19:14.279Z,4.73
2024-02-23T06:21:41.825Z,4.76
2024-02-23T06:24:10.114Z,4.77
2024-02-23T06:26:37.819Z,4.79
2024-02-23T06:29:07.277Z,4.81
2024-02-23T06:31:36.067Z,4.81
2024-02-23T06:34:03.843Z,4.81
2024-02-23T06:36:31.705Z,4.81
2024-02-23T06:38:59.204Z,4.82
2024-02-23T06:41:27.815Z,4.85
2024-02-23T06:43:55.962Z,4.86
2024-02-23T06:46:23.764Z,4.86
2024-02-23T06:48:51.363Z,4.83
2024-02-23T06:51:19.130Z,4.88
2024-02-23T06:53:46.814Z,4.92
2024-02-23T06:56:14.901Z,4.94
2024-02-23T06:58:42.462Z,4.97
2024-02-23T07:01:13.788Z,5.00
2024-02-23T07:03:44.069Z,5.00
2024-02-23T07:06:12.038Z,5.03
2024-02-23T07:08:39.721Z,5.04
2024-02-23T07:11:07.572Z,5.07
2024-02-23T07:13:35.270Z,5.09
2024-02-23T07:16:03.308Z,5.15
2024-02-23T07:18:30.926Z,5.13
2024-02-23T07:20:58.392Z,5.16
2024-02-23T07:23:25.942Z,5.17
2024-02-23T07:25:54.485Z,5.20
2024-02-23T07:28:23.605Z,5.20
2024-02-23T07:30:51.276Z,5.23
2024-02-23T07:33:18.792Z,5.23
2024-02-23T07:35:46.603Z,5.24
2024-02-23T07:38:14.706Z,5.23
2024-02-23T07:40:42.337Z,5.24
2024-02-23T07:43:12.044Z,5.26
2024-02-23T07:45:39.710Z,5.27
2024-02-23T07:48:07.635Z,5.27
2024-02-23T07:50:35.333Z,5.27
2024-02-23T07:53:02.986Z,5.32
2024-02-23T07:55:30.669Z,5.31
2024-02-23T07:58:02.961Z,5.35
2024-02-23T08:00:30.842Z,5.33
2024-02-23T08:03:00.335Z,5.31
2024-02-23T08:05:27.876Z,5.35
2024-02-23T08:07:55.648Z,5.37
2024-02-23T08:10:23.516Z,5.38
2024-02-23T08:12:51.100Z,5.37
2024-02-23T08:15:18.859Z,5.39
2024-02-23T08:17:46.473Z,5.40
2024-02-23T08:20:14.237Z,5.37
2024-02-23T08:22:41.870Z,5.38
2024-02-23T08:25:11.785Z,5.37
2024-02-23T08:27:42.191Z,5.39
2024-02-23T08:30:12.125Z,5.42
2024-02-23T08:32:40.032Z,5.45
2024-02-23T08:35:09.680Z,5.47
2024-02-23T08:37:37.281Z,5.45
2024-02-23T08:40:07.619Z,5.44
2024-02-23T08:42:35.329Z,5.46
2024-02-23T08:45:03.513Z,5.44
2024-02-23T08:47:34.279Z,5.46
2024-02-23T08:50:02.548Z,5.44
2024-02-23T08:52:30.191Z,5.42
2024-02-23T08:54:57.847Z,5.40
2024-02-23T08:57:25.508Z,5.40
2024-02-23T08:59:53.183Z,5.40
2024-02-23T09:02:21.665Z,5.38
2024-02-23T09:04:49.392Z,5.37
2024-02-23T09:07:17.351Z,5.38
2024-02-23T09:09:45.880Z,5.41
2024-02-23T09:12:16.220Z,5.39
2024-02-23T09:14:44.551Z,5.36
2024-02-23T09:17:12.752Z,5.32
2024-02-23T09:19:40.548Z,5.33
2024-02-23T09:22:08.507Z,5.38
2024-02-23T09:24:36.733Z,5.36
2024-02-23T09:27:04.706Z,5.39
2024-02-23T09:29:32.607Z,5.41
2024-02-23T09:32:01.547Z,5.41
2024-02-23T09:34:30.775Z,5.46
2024-02-23T09:36:58.581Z,5.49
2024-02-23T09:39:27.776Z,5.51
2024-02-23T09:41:55.667Z,5.52
2024-02-23T09:44:23.894Z,5.50
2024-02-23T09:46:51.709Z,5.53
2024-02-23T09:49:19.576Z,5.56
2024-02-23T09:51:47.317Z,5.55
2024-02-23T09:54:16.354Z,5.57
2024-02-23T09:56:45.143Z,5.57
2024-02-23T09:59:13.020Z,5.61
2024-02-23T10:01:40.672Z,5.61
2024-02-23T10:04:09.435Z,5.67
2024-02-23T10:06:37.152Z,5.73
2024-02-23T10:09:05.747Z,5.75
2024-02-23T10:11:33.679Z,5.76
2024-02-23T10:14:01.340Z,5.79
2024-02-23T10:16:28.996Z,5.82
2024-02-23T10:18:56.710Z,5.85
2024-02-23T10:21:24.819Z,5.86
2024-02-23T10:23:53.407Z,5.92
2024-02-23T10:26:24.042Z,5.97
2024-02-23T10:28:52.686Z,5.96
2024-02-23T10:31:20.590Z,6.01
2024-02-23T10:33:49.205Z,6.04
2024-02-23T10:36:17.659Z,6.10
2024-02-23T10:38:46.730Z,6.14
2024-02-23T10:41:15.515Z,6.14
2024-02-23T10:43:46.062Z,6.16
2024-02-23T10:46:16.782Z,6.19
2024-02-23T10:48:45.201Z,6.25
2024-02-23T10:51:17.665Z,6.33
2024-02-23T10:53:48.211Z,6.40
2024-02-23T10:56:15.762Z,6.46
2024-02-23T10:58:43.267Z,6.50
2024-02-23T11:01:10.945Z,6.57
2024-02-23T11:03:38.973Z,6.59
2024-02-23T11:06:09.682Z,6.63
2024-02-23T11:08:40.587Z,6.70
2024-02-23T11:11:09.567Z,6.76
2024-02-23T11:13:40.271Z,6.78
2024-02-23T11:16:12.362Z,6.78
2024-02-23T11:18:43.679Z,6.80
2024-02-23T11:21:11.653Z,6.81
2024-02-23T11:23:44.000Z,6.85
2024-02-23T11:26:12.529Z,6.84
2024-02-23T11:28:59.458Z,6.84
2024-02-23T11:31:30.825Z,6.85
2024-02-23T11:33:58.792Z,6.90
2024-02-23T11:36:30.342Z,6.91
2024-02-23T11:38:58.961Z,6.95
2024-02-23T11:41:26.809Z,6.97
2024-02-23T11:43:55.415Z,6.98
2024-02-23T11:46:23.426Z,7.05
2024-02-23T11:48:57.408Z,7.09
2024-02-23T11:51:28.160Z,7.14
2024-02-23T11:53:57.468Z,7.17
2024-02-23T11:56:25.313Z,7.21
2024-02-23T11:58:55.076Z,7.21
2024-02-23T12:01:23.079Z,7.19
2024-02-23T12:03:50.689Z,7.22
2024-02-23T12:06:18.206Z,7.21
2024-02-23T12:08:46.547Z,7.24
2024-02-23T12:11:15.488Z,7.22
2024-02-23T12:13:44.105Z,7.24
2024-02-23T12:16:11.628Z,7.25
2024-02-23T12:18:39.133Z,7.25
2024-02-23T12:21:10.049Z,7.27
2024-02-23T12:23:44.559Z,7.29
2024-02-23T12:26:14.623Z,7.27
2024-02-23T12:28:42.566Z,7.30
2024-02-23T12:31:10.593Z,7.31
2024-02-23T12:33:42.136Z,7.32
2024-02-23T12:36:10.276Z,7.32
2024-02-23T12:38:38.102Z,7.29
2024-02-23T12:41:06.105Z,7.32
2024-02-23T12:43:33.885Z,7.35
2024-02-23T12:46:03.293Z,7.34
2024-02-23T12:48:30.934Z,7.29
2024-02-23T12:50:58.421Z,7.30
2024-02-23T12:53:39.518Z,7.31
2024-02-23T12:56:15.088Z,7.33
2024-02-23T12:58:43.367Z,7.31
2024-02-23T13:01:11.288Z,7.35
2024-02-23T13:03:39.876Z,7.38
2024-02-23T13:06:08.495Z,7.41
2024-02-23T13:08:36.244Z,7.40
2024-02-23T13:11:05.053Z,7.43
2024-02-23T13:13:33.320Z,7.42
2024-02-23T13:16:00.847Z,7.43
2024-02-23T13:18:28.601Z,7.44
2024-02-23T13:20:56.468Z,7.44
2024-02-23T13:23:24.190Z,7.42
2024-02-23T13:25:51.819Z,7.45
2024-02-23T13:28:19.597Z,7.43
2024-02-23T13:30:47.158Z,7.43
2024-02-23T13:33:16.095Z,7.45
2024-02-23T13:35:44.878Z,7.45
2024-02-23T13:38:12.538Z,7.51
2024-02-23T13:40:40.150Z,7.50
2024-02-23T13:43:07.698Z,7.52
2024-02-23T13:45:35.286Z,7.53
2024-02-23T13:48:04.541Z,7.54
2024-02-23T13:50:32.268Z,7.57
2024-02-23T13:53:00.193Z,7.54
2024-02-23T13:55:27.824Z,7.56
2024-02-23T13:57:55.431Z,7.57
2024-02-23T14:00:23.375Z,7.54
2024-02-23T14:02:51.065Z,7.56
2024-02-23T14:05:20.109Z,7.55
2024-02-23T14:07:47.775Z,7.56
2024-02-23T14:10:15.360Z,7.57
2024-02-23T14:12:43.086Z,7.58
2024-02-23T14:15:11.871Z,7.59
2024-02-23T14:17:39.737Z,7.61
2024-02-23T14:20:08.608Z,7.63
2024-02-23T14:22:36.269Z,7.62
2024-02-23T14:25:03.859Z,7.61
2024-02-23T14:27:32.131Z,7.64
2024-02-23T14:30:00.561Z,7.65
2024-02-23T14:32:29.269Z,7.65
2024-02-23T14:34:59.025Z,7.66
2024-02-23T14:37:26.804Z,7.65
2024-02-23T14:39:54.351Z,7.69
2024-02-23T14:42:21.837Z,7.67
2024-02-23T14:44:51.414Z,7.68
2024-02-23T14:47:22.266Z,7.69
2024-02-23T14:49:54.153Z,7.67
2024-02-23T14:52:21.857Z,7.68
2024-02-23T14:54:49.325Z,7.67
2024-02-23T14:57:16.836Z,7.70
2024-02-23T14:59:48.144Z,7.69
2024-02-23T15:02:21.746Z,7.69
2024-02-23T15:04:49.720Z,7.69
2024-02-23T15:07:17.876Z,7.70
2024-02-23T15:09:45.492Z,7.70
2024-02-23T15:12:13.197Z,7.70
2024-02-23T15:14:41.283Z,7.71
2024-02-23T15:17:09.101Z,7.69
2024-02-23T15:19:36.789Z,7.70
2024-02-23T15:22:04.712Z,7.68
2024-02-23T15:24:33.566Z,7.65
2024-02-23T15:27:01.667Z,7.62
2024-02-23T15:29:30.129Z,7.59
2024-02-23T15:31:57.746Z,7.57
2024-02-23T15:34:25.368Z,7.54
2024-02-23T15:36:53.003Z,7.51
2024-02-23T15:39:20.488Z,7.46
2024-02-23T15:41:48.243Z,7.45
2024-02-23T15:44:15.773Z,7.44
2024-02-23T15:46:43.368Z,7.40
2024-02-23T15:49:21.821Z,7.36
2024-02-23T15:52:01.361Z,7.35
2024-02-23T15:54:31.439Z,7.31
2024-02-23T15:56:59.438Z,7.30
2024-02-23T15:59:27.882Z,7.25
2024-02-23T16:01:56.805Z,7.25
2024-02-23T16:04:24.352Z,7.24
2024-02-23T16:06:51.808Z,7.25
2024-02-23T16:09:19.722Z,7.24
2024-02-23T16:11:50.663Z,7.25
2024-02-23T16:14:18.883Z,7.24
2024-02-23T16:16:46.493Z,7.23
2024-02-23T16:19:14.284Z,7.26
2024-02-23T16:21:47.162Z,7.25
2024-02-23T16:24:14.671Z,7.26
2024-02-23T16:26:42.373Z,7.28
2024-02-23T16:29:09.962Z,7.29
2024-02-23T16:31:43.476Z,7.32
2024-02-23T16:34:10.980Z,7.32
2024-02-23T16:36:38.456Z,7.33
2024-02-23T16:39:08.968Z,7.33
2024-02-23T16:41:37.076Z,7.35
2024-02-23T16:44:05.129Z,7.36
2024-02-23T16:46:32.727Z,7.38
2024-02-23T16:49:00.963Z,7.40
2024-02-23T16:51:29.924Z,7.41
2024-02-23T16:53:57.560Z,7.42
2024-02-23T16:56:27.181Z,7.44
2024-02-23T16:58:55.004Z,7.46
2024-02-23T17:01:22.511Z,7.48
2024-02-23T17:03:50.342Z,7.51
2024-02-23T17:06:18.021Z,7.50
2024-02-23T17:08:45.621Z,7.51
2024-02-23T17:11:13.400Z,7.54
2024-02-23T17:13:44.651Z,7.53
2024-02-23T17:16:12.221Z,7.54
2024-02-23T17:18:39.767Z,7.57
2024-02-23T17:21:07.274Z,7.58
2024-02-23T17:23:34.969Z,7.60
2024-02-23T17:26:02.620Z,7.59
2024-02-23T17:28:30.126Z,7.58
2024-02-23T17:30:57.606Z,7.62
2024-02-23T17:33:25.181Z,7.63
2024-02-23T17:35:52.698Z,7.65
2024-02-23T17:38:20.259Z,7.67
2024-02-23T17:40:51.727Z,7.71
2024-02-23T17:43:19.494Z,7.74
2024-02-23T17:45:46.954Z,7.77
2024-02-23T17:48:14.542Z,7.78
2024-02-23T17:50:42.078Z,7.80
2024-02-23T17:53:09.841Z,7.86
2024-02-23T17:55:37.374Z,7.89
2024-02-23T17:58:12.428Z,7.96
2024-02-23T18:00:47.278Z,8.01
2024-02-23T18:03:14.878Z,8.05
2024-02-23T18:05:42.470Z,8.10
2024-02-23T18:08:10.163Z,8.12
2024-02-23T18:10:39.019Z,8.17
2024-02-23T18:13:06.557Z,8.21
2024-02-23T18:15:34.150Z,8.24
2024-02-23T18:18:01.869Z,8.25
2024-02-23T18:20:29.522Z,8.24
2024-02-23T18:22:57.885Z,8.24
2024-02-23T18:25:25.666Z,8.25
2024-02-23T18:27:53.220Z,8.24
2024-02-23T18:30:20.913Z,8.24
2024-02-23T18:32:48.603Z,8.23
2024-02-23T18:35:16.333Z,8.25
2024-02-23T18:37:46.359Z,8.24
2024-02-23T18:40:15.513Z,8.24
2024-02-23T18:42:43.039Z,8.23
2024-02-23T18:45:10.857Z,8.21
2024-02-23T18:47:38.524Z,8.18
2024-02-23T18:50:06.325Z,8.17
2024-02-23T18:52:34.410Z,8.18
2024-02-23T18:55:02.091Z,8.15
2024-02-23T18:57:30.708Z,8.13
2024-02-23T18:59:58.346Z,8.11
2024-02-23T19:02:25.990Z,8.12
2024-02-23T19:04:53.675Z,8.09
2024-02-23T19:07:21.274Z,8.10
2024-02-23T19:09:48.792Z,8.08
2024-02-23T19:12:16.728Z,8.06
2024-02-23T19:14:44.434Z,8.07
2024-02-23T19:17:12.345Z,8.07
2024-02-23T19:19:40.026Z,8.08
2024-02-23T19:22:07.669Z,8.08
2024-02-23T19:24:35.635Z,8.06
2024-02-23T19:27:03.266Z,8.04
2024-02-23T19:29:31.182Z,8.06
2024-02-23T19:31:58.965Z,8.04
2024-02-23T19:34:26.711Z,8.03
2024-02-23T19:36:55.558Z,8.04
2024-02-23T19:39:23.293Z,8.02
2024-02-23T19:41:50.912Z,8.01
2024-02-23T19:44:18.738Z,7.98
2024-02-23T19:46:48.063Z,7.96
2024-02-23T19:49:15.713Z,7.92
2024-02-23T19:51:43.278Z,7.89
2024-02-23T19:54:10.783Z,7.85
2024-02-23T19:56:38.378Z,7.83
2024-02-23T19:59:06.020Z,7.82
2024-02-23T20:01:33.581Z,7.78
2024-02-23T20:04:01.606Z,7.74
2024-02-23T20:06:29.266Z,7.70
2024-02-23T20:08:56.792Z,7.68
2024-02-23T20:11:24.500Z,7.63
2024-02-23T20:13:52.300Z,7.60
2024-02-23T20:16:20.239Z,7.56
2024-02-23T20:18:47.890Z,7.55
2024-02-23T20:21:15.583Z,7.53
2024-02-23T20:23:43.280Z,7.48
2024-02-23T20:26:11.298Z,7.43
2024-02-23T20:28:38.855Z,7.41
2024-02-23T20:31:07.744Z,7.37
2024-02-23T20:33:35.667Z,7.34
2024-02-23T20:36:03.793Z,7.31
2024-02-23T20:38:31.780Z,7.25
2024-02-23T20:40:59.739Z,7.22
2024-02-23T20:43:27.891Z,7.20
2024-02-23T20:45:57.318Z,7.20
2024-02-23T20:48:25.112Z,7.17
2024-02-23T20:50:52.856Z,7.13
2024-02-23T20:53:20.494Z,7.12
2024-02-23T20:55:50.902Z,7.10
2024-02-23T20:58:18.929Z,7.07
2024-02-23T21:00:49.372Z,7.04
2024-02-23T21:03:17.822Z,7.03
2024-02-23T21:05:45.471Z,7.01
2024-02-23T21:08:13.339Z,7.03
2024-02-23T21:10:41.489Z,7.03
2024-02-23T21:13:09.099Z,7.04
2024-02-23T21:15:38.066Z,7.05
2024-02-23T21:18:06.468Z,7.05
2024-02-23T21:20:34.203Z,7.07
2024-02-23T21:23:01.769Z,7.03
2024-02-23T21:25:29.288Z,7.06
2024-02-23T21:27:56.810Z,7.04
2024-02-23T21:30:24.319Z,7.07
2024-02-23T21:32:52.694Z,7.06
2024-02-23T21:35:21.403Z,7.06
2024-02-23T21:37:49.031Z,7.05
2024-02-23T21:40:17.671Z,7.06
2024-02-23T21:42:45.866Z,7.07
2024-02-23T21:45:13.537Z,7.08
2024-02-23T21:47:41.034Z,7.09
2024-02-23T21:50:09.847Z,7.07
2024-02-23T21:52:40.248Z,7.08
2024-02-23T21:55:09.983Z,7.10
2024-02-23T21:57:37.591Z,7.12
2024-02-23T22:00:06.113Z,7.10
2024-02-23T22:02:33.647Z,7.11
2024-02-23T22:05:02.658Z,7.10
2024-02-23T22:07:30.326Z,7.09
2024-02-23T22:09:57.905Z,7.08
2024-02-23T22:12:27.534Z,7.06
2024-02-23T22:14:55.471Z,7.07
2024-02-23T22:17:22.993Z,7.08
2024-02-23T22:19:50.607Z,7.11
2024-02-23T22:22:18.682Z,7.09
2024-02-23T22:24:46.243Z,7.12
2024-02-23T22:27:16.404Z,7.11
2024-02-23T22:29:46.549Z,7.09
2024-02-23T22:32:14.324Z,7.05
2024-02-23T22:34:41.926Z,7.01
2024-02-23T22:37:09.446Z,7.01
2024-02-23T22:39:36.939Z,7.02
2024-02-23T22:42:05.658Z,7.02
2024-02-23T22:44:33.350Z,7.03
2024-02-23T22:47:00.895Z,7.04
2024-02-23T22:49:28.410Z,7.04
2024-02-23T22:51:55.897Z,7.05
2024-02-23T22:54:23.368Z,7.03
2024-02-23T22:56:50.968Z,7.04
2024-02-23T22:59:19.147Z,7.06
2024-02-23T23:01:46.875Z,7.03
2024-02-23T23:04:14.403Z,7.03
2024-02-23T23:06:45.896Z,7.04
2024-02-23T23:09:13.722Z,7.01
2024-02-23T23:11:41.479Z,7.00
2024-02-23T23:14:09.226Z,7.02
2024-02-23T23:16:36.848Z,7.04
2024-02-23T23:19:04.574Z,7.03
2024-02-23T23:21:32.382Z,7.02
2024-02-23T23:24:00.012Z,7.02
2024-02-23T23:26:27.769Z,7.02
2024-02-23T23:28:56.492Z,7.02
2024-02-23T23:31:26.193Z,7.02
2024-02-23T23:33:55.582Z,7.03
2024-02-23T23:36:23.260Z,7.03
2024-02-23T23:38:50.841Z,7.03
2024-02-23T23:41:18.499Z,7.01
2024-02-23T23:43:46.742Z,6.99
2024-02-23T23:46:15.032Z,7.00
2024-02-23T23:48:42.725Z,6.99
2024-02-23T23:51:10.478Z,7.00
2024-02-23T23:53:38.170Z,7.00
2024-02-23T23:56:05.917Z,7.01
2024-02-23T23:58:33.438Z,7.00
